Terminal Aerodrome Forecast
Issued by NWS

Home | Current Version | Previous Version | Text Only | Print | Product List | Glossary On
Versions: 1 2 3 4 5 6 7 8 9 10 11 12 13 14
000
FTUS45 KRIW 041700
TAFBPI
TAF
KBPI 041725Z 0418/0518 VRB05KT P6SM SCT110 BKN200
     FM041900 VRB05KT P6SM VCSH SCT080
     FM042100 VRB15G25KT P6SM VCTS SCT080CB BKN150
     FM050300 VRB06KT P6SM VCSH SCT040 BKN100
     FM050500 13011KT P6SM VCSH FEW008 SCT020 OVC040
     FM051200 VRB06KT P6SM SCT010 BKN040=

USA.gov is the U.S. government's official web portal to all federal, state and local government web resources and services.